createdAt,value
2023-03-16T00:01:23.323Z,56.53
2023-03-16T00:03:51.151Z,56.70
2023-03-16T00:06:18.755Z,67.38
2023-03-16T00:08:48.528Z,56.85
2023-03-16T00:11:16.390Z,71.90
2023-03-16T00:13:44.086Z,63.47
2023-03-16T00:16:13.895Z,135.80
2023-03-16T00:18:41.593Z,141.93
2023-03-16T00:21:09.205Z,115.88
2023-03-16T00:23:39.619Z,78.05
2023-03-16T00:26:07.308Z,65.38
2023-03-16T00:28:34.886Z,67.90
2023-03-16T00:31:04.656Z,65.45
2023-03-16T00:33:32.464Z,60.15
2023-03-16T00:36:00.660Z,56.83
2023-03-16T00:38:28.408Z,56.65
2023-03-16T00:40:55.915Z,50.28
2023-03-16T00:43:23.649Z,57.22
2023-03-16T00:45:53.360Z,61.63
2023-03-16T00:48:22.012Z,50.38
2023-03-16T00:50:51.581Z,49.97
2023-03-16T00:53:22.049Z,49.35
2023-03-16T00:55:52.368Z,51.35
2023-03-16T00:58:20.023Z,55.42
2023-03-16T01:00:49.763Z,49.10
2023-03-16T01:03:17.529Z,51.60
2023-03-16T01:05:45.755Z,48.83
2023-03-16T01:08:17.665Z,55.28
2023-03-16T01:10:45.483Z,44.40
2023-03-16T01:13:13.089Z,51.38
2023-03-16T01:15:41.850Z,45.97
2023-03-16T01:18:09.726Z,43.50
2023-03-16T01:20:37.254Z,47.28
2023-03-16T01:23:06.116Z,46.58
2023-03-16T01:25:33.879Z,45.05
2023-03-16T01:28:01.509Z,48.08
2023-03-16T01:30:31.311Z,42.58
2023-03-16T01:32:59.187Z,43.58
2023-03-16T01:35:26.799Z,39.33
2023-03-16T01:37:56.918Z,39.78
2023-03-16T01:40:24.660Z,41.83
2023-03-16T01:42:52.258Z,39.03
2023-03-16T01:45:22.054Z,50.80
2023-03-16T01:47:49.781Z,39.75
2023-03-16T01:50:17.328Z,44.78
2023-03-16T01:52:47.199Z,40.17
2023-03-16T01:55:15.029Z,39.67
2023-03-16T01:57:42.787Z,38.58
2023-03-16T02:00:12.695Z,46.10
2023-03-16T02:02:40.237Z,41.67
2023-03-16T02:05:07.990Z,37.03
2023-03-16T02:07:36.847Z,38.42
2023-03-16T02:10:04.482Z,32.00
2023-03-16T02:12:31.981Z,32.80
2023-03-16T02:14:59.666Z,39.58
2023-03-16T02:17:27.254Z,29.88
2023-03-16T02:19:54.844Z,33.28
2023-03-16T02:22:24.630Z,33.35
2023-03-16T02:24:52.608Z,33.25
2023-03-16T02:27:20.748Z,39.35
2023-03-16T02:29:50.562Z,38.40
2023-03-16T02:32:18.127Z,29.48
2023-03-16T02:34:45.801Z,34.88
2023-03-16T02:37:15.515Z,35.15
2023-03-16T02:39:43.272Z,31.38
2023-03-16T02:42:11.443Z,32.47
2023-03-16T02:44:39.314Z,28.65
2023-03-16T02:47:06.887Z,33.78
2023-03-16T02:49:34.492Z,31.92
2023-03-16T02:52:04.486Z,32.30
2023-03-16T02:54:32.521Z,34.67
2023-03-16T02:57:00.065Z,28.98
2023-03-16T02:59:29.828Z,30.52
2023-03-16T03:01:57.414Z,28.00
2023-03-16T03:04:24.991Z,28.85
2023-03-16T03:06:55.011Z,29.10
2023-03-16T03:09:22.667Z,25.88
2023-03-16T03:11:50.264Z,27.15
2023-03-16T03:14:18.924Z,29.90
2023-03-16T03:16:46.880Z,26.45
2023-03-16T03:19:14.900Z,31.10
2023-03-16T03:21:44.791Z,26.67
2023-03-16T03:24:12.535Z,27.02
2023-03-16T03:26:40.073Z,28.45
2023-03-16T03:29:09.828Z,32.30
2023-03-16T03:31:37.436Z,28.25
2023-03-16T03:34:05.029Z,24.55
2023-03-16T03:36:34.784Z,26.02
2023-03-16T03:39:02.468Z,27.98
2023-03-16T03:41:30.157Z,26.20
2023-03-16T03:43:59.859Z,25.45
2023-03-16T03:46:27.632Z,23.85
2023-03-16T03:48:55.293Z,27.83
2023-03-16T03:51:25.000Z,30.27
2023-03-16T03:53:52.663Z,24.40
2023-03-16T03:56:21.328Z,34.78
2023-03-16T03:58:51.148Z,25.10
2023-03-16T04:01:18.753Z,27.33
2023-03-16T04:03:46.430Z,29.35
2023-03-16T04:06:16.186Z,26.85
2023-03-16T04:08:43.962Z,25.90
2023-03-16T04:11:11.472Z,24.83
2023-03-16T04:13:41.254Z,22.08
2023-03-16T04:16:08.995Z,27.42
2023-03-16T04:18:56.780Z,25.60
2023-03-16T04:21:24.703Z,23.98
2023-03-16T04:23:52.367Z,26.17
2023-03-16T04:26:22.312Z,27.65
2023-03-16T04:28:49.977Z,25.20
2023-03-16T04:31:17.580Z,23.60
2023-03-16T04:33:47.482Z,24.80
2023-03-16T04:36:15.258Z,23.52
2023-03-16T04:38:42.862Z,26.05
2023-03-16T04:41:12.808Z,25.02
2023-03-16T04:43:40.477Z,24.23
2023-03-16T04:46:08.150Z,24.65
2023-03-16T04:48:38.194Z,26.40
2023-03-16T04:51:05.934Z,26.27
2023-03-16T04:53:33.743Z,24.50
2023-03-16T04:56:01.808Z,24.27
2023-03-16T04:58:29.527Z,24.08
2023-03-16T05:00:57.084Z,22.90
2023-03-16T05:03:29.994Z,20.88
2023-03-16T05:05:57.665Z,22.67
2023-03-16T05:08:25.384Z,24.48
2023-03-16T05:10:55.382Z,20.90
2023-03-16T05:13:23.631Z,24.65
2023-03-16T05:15:51.200Z,25.55
2023-03-16T05:18:18.903Z,24.60
2023-03-16T05:20:46.533Z,31.92
2023-03-16T05:23:15.968Z,29.15
2023-03-16T05:25:45.012Z,22.73
2023-03-16T05:28:14.464Z,23.67
2023-03-16T05:30:42.055Z,25.23
2023-03-16T05:33:10.884Z,27.13
2023-03-16T05:35:38.824Z,26.92
2023-03-16T05:38:06.575Z,25.27
2023-03-16T05:40:36.991Z,21.90
2023-03-16T05:43:04.882Z,21.80
2023-03-16T05:45:32.410Z,22.25
2023-03-16T05:48:00.161Z,27.88
2023-03-16T05:50:28.199Z,22.08
2023-03-16T05:52:55.845Z,24.38
2023-03-16T05:55:25.811Z,25.75
2023-03-16T05:57:53.467Z,19.88
2023-03-16T06:00:21.070Z,28.45
2023-03-16T06:02:48.771Z,22.00
2023-03-16T06:05:16.440Z,24.33
2023-03-16T06:07:43.965Z,26.67
2023-03-16T06:10:14.037Z,23.88
2023-03-16T06:12:41.827Z,26.70
2023-03-16T06:15:09.568Z,27.48
2023-03-16T06:17:39.509Z,25.42
2023-03-16T06:20:07.438Z,24.42
2023-03-16T06:22:35.018Z,23.35
2023-03-16T06:25:05.010Z,24.67
2023-03-16T06:27:34.085Z,25.65
2023-03-16T06:30:01.686Z,25.05
2023-03-16T06:32:31.627Z,25.45
2023-03-16T06:35:01.706Z,25.75
2023-03-16T06:37:29.592Z,21.08
2023-03-16T06:39:57.140Z,22.15
2023-03-16T06:42:27.434Z,22.05
2023-03-16T06:44:55.202Z,23.38
2023-03-16T06:47:22.833Z,23.20
2023-03-16T06:49:52.915Z,25.98
2023-03-16T06:52:20.485Z,26.90
2023-03-16T06:54:48.076Z,23.70
2023-03-16T06:57:18.331Z,24.02
2023-03-16T06:59:45.938Z,25.23
2023-03-16T07:02:13.623Z,25.30
2023-03-16T07:04:43.601Z,22.65
2023-03-16T07:07:11.158Z,23.60
2023-03-16T07:09:41.135Z,24.77
2023-03-16T07:12:12.122Z,21.27
2023-03-16T07:14:39.712Z,25.05
2023-03-16T07:17:07.288Z,24.92
2023-03-16T07:19:37.707Z,26.23
2023-03-16T07:22:05.289Z,22.42
2023-03-16T07:24:32.925Z,25.67
2023-03-16T07:27:02.485Z,24.38
2023-03-16T07:29:30.012Z,25.85
2023-03-16T07:31:57.666Z,23.98
2023-03-16T07:34:28.034Z,24.60
2023-03-16T07:36:55.599Z,29.23
2023-03-16T07:39:23.155Z,21.58
2023-03-16T07:41:53.319Z,27.23
2023-03-16T07:44:20.934Z,22.20
2023-03-16T07:46:48.523Z,20.95
2023-03-16T07:49:18.309Z,23.33
2023-03-16T07:51:45.882Z,28.23
2023-03-16T07:54:13.544Z,20.85
2023-03-16T07:56:49.217Z,28.10
2023-03-16T07:59:18.291Z,24.27
2023-03-16T08:01:49.595Z,24.45
2023-03-16T08:04:17.207Z,26.13
2023-03-16T08:06:44.794Z,27.05
2023-03-16T08:09:14.999Z,25.80
2023-03-16T08:11:42.583Z,24.98
2023-03-16T08:14:10.180Z,29.02
2023-03-16T08:16:40.146Z,34.47
2023-03-16T08:19:07.687Z,32.97
2023-03-16T08:21:45.455Z,26.73
2023-03-16T08:24:23.477Z,24.13
2023-03-16T08:26:51.061Z,25.48
2023-03-16T08:29:18.657Z,24.30
2023-03-16T08:31:49.102Z,25.15
2023-03-16T08:34:16.714Z,21.52
2023-03-16T08:36:45.472Z,23.35
2023-03-16T08:39:15.441Z,24.50
2023-03-16T08:41:42.997Z,23.00
2023-03-16T08:44:10.588Z,26.50
2023-03-16T08:46:40.630Z,26.48
2023-03-16T08:49:08.226Z,24.17
2023-03-16T08:51:35.823Z,26.42
2023-03-16T08:54:05.557Z,24.10
2023-03-16T08:56:33.096Z,25.40
2023-03-16T08:59:00.711Z,27.30
2023-03-16T09:01:28.805Z,28.42
2023-03-16T09:03:56.416Z,26.30
2023-03-16T09:06:23.903Z,24.25
2023-03-16T09:08:54.215Z,26.85
2023-03-16T09:11:21.825Z,22.13
2023-03-16T09:13:51.158Z,27.42
2023-03-16T09:16:22.795Z,31.75
2023-03-16T09:18:50.432Z,23.30
2023-03-16T09:21:18.053Z,26.73
2023-03-16T09:23:46.789Z,21.30
2023-03-16T09:26:14.717Z,25.15
2023-03-16T09:28:42.412Z,25.60
2023-03-16T09:31:12.360Z,23.75
2023-03-16T09:33:39.969Z,20.98
2023-03-16T09:36:07.561Z,24.33
2023-03-16T09:38:35.973Z,23.95
2023-03-16T09:41:03.523Z,25.98
2023-03-16T09:43:31.286Z,25.50
2023-03-16T09:45:59.231Z,25.75
2023-03-16T09:48:26.832Z,28.35
2023-03-16T09:50:54.820Z,29.08
2023-03-16T09:53:25.302Z,23.27
2023-03-16T09:55:54.750Z,24.95
2023-03-16T09:58:22.562Z,30.08
2023-03-16T10:00:52.532Z,22.77
2023-03-16T10:03:20.088Z,28.77
2023-03-16T10:05:47.643Z,26.85
2023-03-16T10:08:18.381Z,26.98
2023-03-16T10:10:46.003Z,23.77
2023-03-16T10:13:13.573Z,22.33
2023-03-16T10:15:43.793Z,28.65
2023-03-16T10:18:13.336Z,28.45
2023-03-16T10:20:41.255Z,22.70
2023-03-16T10:23:09.177Z,25.92
2023-03-16T10:25:36.706Z,22.80
2023-03-16T10:28:04.381Z,27.35
2023-03-16T10:30:34.154Z,27.90
2023-03-16T10:33:01.806Z,23.27
2023-03-16T10:35:29.763Z,29.38
2023-03-16T10:38:00.010Z,26.95
2023-03-16T10:40:27.905Z,24.05
2023-03-16T10:42:55.760Z,25.83
2023-03-16T10:45:25.627Z,29.13
2023-03-16T10:47:53.181Z,27.75
2023-03-16T10:50:21.148Z,38.33
2023-03-16T10:52:51.118Z,32.55
2023-03-16T10:55:18.722Z,37.30
2023-03-16T10:57:46.408Z,37.38
2023-03-16T11:00:16.212Z,35.05
2023-03-16T11:02:43.761Z,37.92
2023-03-16T11:05:11.747Z,40.28
2023-03-16T11:07:39.578Z,38.13
2023-03-16T11:10:07.187Z,45.47
2023-03-16T11:12:34.784Z,47.35
2023-03-16T11:15:07.507Z,37.08
2023-03-16T11:17:36.919Z,38.10
2023-03-16T11:20:04.507Z,37.38
2023-03-16T11:22:34.450Z,37.38
2023-03-16T11:25:02.322Z,36.15
2023-03-16T11:27:29.912Z,34.90
2023-03-16T11:29:59.769Z,39.50
2023-03-16T11:32:27.443Z,52.67
2023-03-16T11:34:55.058Z,46.55
2023-03-16T11:37:24.502Z,36.08
2023-03-16T11:39:52.270Z,37.95
2023-03-16T11:42:19.834Z,46.45
2023-03-16T11:44:50.687Z,38.80
2023-03-16T11:47:19.042Z,33.15
2023-03-16T11:49:46.631Z,36.85
2023-03-16T11:52:16.559Z,36.17
2023-03-16T11:54:44.285Z,36.70
2023-03-16T11:57:14.648Z,33.40
2023-03-16T11:59:51.829Z,30.80
2023-03-16T12:07:46.994Z,36.23
2023-03-16T12:10:20.457Z,43.28
2023-03-16T12:15:38.050Z,44.13
2023-03-16T12:20:58.015Z,45.83
2023-03-16T12:23:29.068Z,48.53
2023-03-16T12:34:22.785Z,46.47
2023-03-16T12:36:59.008Z,44.88
2023-03-16T12:39:38.709Z,44.10
2023-03-16T12:44:48.343Z,47.97
2023-03-16T12:47:20.173Z,47.83
2023-03-16T12:49:54.491Z,52.05
2023-03-16T12:52:36.385Z,47.65
2023-03-16T12:55:04.972Z,49.05
2023-03-16T12:57:35.885Z,47.50
2023-03-16T13:00:05.352Z,46.88
2023-03-16T13:02:33.330Z,51.50
2023-03-16T13:05:06.063Z,48.05
2023-03-16T13:07:33.842Z,49.55
2023-03-16T13:10:04.227Z,48.13
2023-03-16T13:12:40.722Z,48.65
2023-03-16T13:17:59.850Z,43.65
2023-03-16T13:20:31.076Z,45.65
2023-03-16T13:23:02.170Z,52.85
2023-03-16T13:25:32.469Z,48.00
2023-03-16T13:28:00.002Z,44.20
2023-03-16T13:30:31.575Z,45.28
2023-03-16T13:32:59.407Z,44.15
2023-03-16T13:35:26.993Z,42.28
2023-03-16T13:37:54.836Z,40.08
2023-03-16T13:40:22.527Z,47.55
2023-03-16T13:42:50.066Z,39.65
2023-03-16T13:45:20.256Z,41.05
2023-03-16T13:47:47.908Z,46.22
2023-03-16T13:50:15.486Z,39.83
2023-03-16T13:52:45.626Z,38.63
2023-03-16T13:55:13.218Z,37.72
2023-03-16T13:57:40.857Z,37.35
2023-03-16T14:00:11.221Z,38.20
2023-03-16T14:02:38.832Z,36.78
2023-03-16T14:05:06.403Z,39.20
2023-03-16T14:07:36.917Z,40.63
2023-03-16T14:10:04.625Z,42.88
2023-03-16T14:12:32.465Z,45.22
2023-03-16T14:15:02.040Z,44.40
2023-03-16T14:17:29.671Z,45.88
2023-03-16T14:19:57.231Z,42.22
2023-03-16T14:22:25.136Z,50.78
2023-03-16T14:24:52.809Z,45.15
2023-03-16T14:27:20.376Z,48.55
2023-03-16T14:29:50.567Z,49.83
2023-03-16T14:32:18.336Z,47.38
2023-03-16T14:34:46.033Z,47.85
2023-03-16T14:37:13.977Z,48.75
2023-03-16T14:39:41.822Z,54.40
2023-03-16T14:42:09.367Z,51.33
2023-03-16T14:44:37.806Z,46.92
2023-03-16T14:47:05.596Z,48.92
2023-03-16T14:49:33.607Z,57.33
2023-03-16T14:52:01.622Z,52.58
2023-03-16T14:54:29.369Z,52.05
2023-03-16T14:56:56.868Z,49.50
2023-03-16T14:59:27.013Z,51.55
2023-03-16T15:01:54.965Z,51.35
2023-03-16T15:04:22.643Z,51.65
2023-03-16T15:07:12.840Z,49.40
2023-03-16T15:09:40.749Z,52.70
2023-03-16T15:12:08.351Z,54.88
2023-03-16T15:14:39.277Z,50.88
2023-03-16T15:17:06.796Z,51.70
2023-03-16T15:19:34.290Z,55.75
2023-03-16T15:22:02.168Z,54.42
2023-03-16T15:24:29.788Z,61.05
2023-03-16T15:27:00.324Z,57.88
2023-03-16T15:29:30.881Z,50.33
2023-03-16T15:31:58.470Z,55.60
2023-03-16T15:34:26.791Z,48.97
2023-03-16T15:36:56.902Z,54.42
2023-03-16T15:39:26.731Z,49.20
2023-03-16T15:41:54.467Z,51.42
2023-03-16T15:44:22.292Z,50.63
2023-03-16T15:46:52.283Z,53.92
2023-03-16T15:49:20.381Z,49.15
2023-03-16T15:51:47.953Z,49.67
2023-03-16T15:54:17.710Z,50.92
2023-03-16T15:56:53.737Z,47.35
2023-03-16T15:59:24.308Z,49.35
2023-03-16T16:01:52.128Z,51.15
2023-03-16T16:04:19.972Z,49.85
2023-03-16T16:06:48.857Z,52.92
2023-03-16T16:09:16.669Z,48.58
2023-03-16T16:11:44.227Z,47.95
2023-03-16T16:14:13.988Z,51.55
2023-03-16T16:16:41.609Z,50.30
2023-03-16T16:19:09.173Z,48.70
2023-03-16T16:21:38.948Z,48.83
2023-03-16T16:24:06.609Z,57.30
2023-03-16T16:26:56.313Z,51.60
2023-03-16T16:29:24.212Z,51.42
2023-03-16T16:31:52.120Z,51.97
2023-03-16T16:34:22.704Z,45.53
2023-03-16T16:36:53.528Z,53.42
2023-03-16T16:39:21.144Z,53.28
2023-03-16T16:41:48.716Z,55.97
2023-03-16T16:44:18.705Z,52.50
2023-03-16T16:46:46.324Z,45.83
2023-03-16T16:49:13.916Z,45.60
2023-03-16T16:51:43.808Z,48.50
2023-03-16T16:54:12.981Z,44.50
2023-03-16T16:56:43.358Z,51.75
2023-03-16T16:59:13.381Z,46.70
2023-03-16T17:01:41.227Z,49.78
2023-03-16T17:04:08.837Z,52.88
2023-03-16T17:06:38.747Z,47.05
2023-03-16T17:09:06.426Z,44.70
2023-03-16T17:11:33.946Z,51.70
2023-03-16T17:14:03.829Z,45.40
2023-03-16T17:16:31.593Z,49.40
2023-03-16T17:18:59.191Z,48.00
2023-03-16T17:21:28.950Z,50.58
2023-03-16T17:23:56.600Z,50.60
2023-03-16T17:26:24.146Z,46.60
2023-03-16T17:28:54.069Z,51.40
2023-03-16T17:31:21.707Z,53.08
2023-03-16T17:33:49.258Z,51.15
2023-03-16T17:36:18.962Z,50.88
2023-03-16T17:38:46.538Z,49.03
2023-03-16T17:41:14.101Z,53.90
2023-03-16T17:43:41.782Z,53.63
2023-03-16T17:46:09.455Z,48.47
2023-03-16T17:48:37.122Z,47.83
2023-03-16T17:51:05.835Z,47.15
2023-03-16T17:53:33.415Z,48.65
2023-03-16T17:56:01.004Z,47.58
2023-03-16T17:58:30.767Z,47.20
2023-03-16T18:00:58.306Z,50.45
2023-03-16T18:03:29.349Z,44.88
2023-03-16T18:06:01.578Z,51.78
2023-03-16T18:08:33.622Z,48.00
2023-03-16T18:11:05.012Z,46.70
2023-03-16T18:13:33.588Z,52.45
2023-03-16T18:16:02.387Z,51.72
2023-03-16T18:18:32.996Z,46.15
2023-03-16T18:21:00.651Z,54.72
2023-03-16T18:23:29.205Z,46.85
2023-03-16T18:25:58.869Z,49.88
2023-03-16T18:28:26.489Z,44.58
2023-03-16T18:30:54.131Z,51.53
2023-03-16T18:33:24.048Z,56.30
2023-03-16T18:35:51.649Z,46.05
2023-03-16T18:38:19.286Z,49.13
2023-03-16T18:40:49.031Z,52.05
2023-03-16T18:43:16.591Z,52.30
2023-03-16T18:45:44.746Z,52.20
2023-03-16T18:48:14.633Z,43.78
2023-03-16T18:50:42.325Z,49.85
2023-03-16T18:53:10.478Z,47.20
2023-03-16T18:55:40.337Z,46.03
2023-03-16T18:58:07.868Z,49.88
2023-03-16T19:00:37.630Z,44.05
2023-03-16T19:03:07.573Z,48.83
2023-03-16T19:05:35.138Z,49.03
2023-03-16T19:08:02.710Z,51.97
2023-03-16T19:10:31.668Z,54.65
2023-03-16T19:12:59.297Z,48.30
2023-03-16T19:15:26.867Z,47.88
2023-03-16T19:17:56.712Z,48.25
2023-03-16T19:20:24.272Z,47.80
2023-03-16T19:22:51.842Z,47.83
2023-03-16T19:25:21.357Z,44.97
2023-03-16T19:27:48.959Z,46.78
2023-03-16T19:30:19.456Z,43.30
2023-03-16T19:32:49.605Z,41.90
2023-03-16T19:35:17.232Z,51.47
2023-03-16T19:37:44.800Z,43.97
2023-03-16T19:40:14.540Z,46.55
2023-03-16T19:42:43.155Z,44.53
2023-03-16T19:45:10.704Z,46.55
2023-03-16T19:47:40.504Z,44.40
2023-03-16T19:50:08.075Z,45.58
2023-03-16T19:52:35.643Z,46.95
2023-03-16T19:55:05.392Z,50.65
2023-03-16T19:57:33.034Z,49.38
2023-03-16T20:00:00.613Z,46.92
2023-03-16T20:02:30.427Z,49.70
2023-03-16T20:04:58.006Z,50.00
2023-03-16T20:07:25.578Z,47.72
2023-03-16T20:09:55.392Z,49.58
2023-03-16T20:12:23.041Z,50.25
2023-03-16T20:14:50.615Z,46.42
2023-03-16T20:17:18.892Z,48.03
2023-03-16T20:19:47.087Z,47.28
2023-03-16T20:22:31.456Z,47.42
2023-03-16T20:24:59.375Z,51.10
2023-03-16T20:27:27.070Z,49.42
2023-03-16T20:32:35.502Z,47.47
2023-03-16T20:35:12.628Z,48.08
2023-03-16T20:37:40.589Z,47.08
2023-03-16T20:40:12.401Z,48.15
2023-03-16T20:42:43.314Z,46.08
2023-03-16T20:45:15.267Z,47.30
2023-03-16T20:47:48.100Z,45.00
2023-03-16T20:50:16.424Z,43.53
2023-03-16T20:52:44.056Z,49.63
2023-03-16T20:55:13.911Z,48.28
2023-03-16T20:57:43.285Z,45.78
2023-03-16T21:00:10.859Z,50.22
2023-03-16T21:02:40.785Z,45.33
2023-03-16T21:05:08.556Z,47.38
2023-03-16T21:07:41.604Z,46.80
2023-03-16T21:10:11.499Z,46.78
2023-03-16T21:12:39.060Z,47.70
2023-03-16T21:15:06.585Z,42.90
2023-03-16T21:17:37.539Z,45.42
2023-03-16T21:20:05.124Z,43.35
2023-03-16T21:22:33.104Z,42.42
2023-03-16T21:25:02.990Z,45.50
2023-03-16T21:27:30.820Z,45.95
2023-03-16T21:29:58.848Z,44.13
2023-03-16T21:32:29.856Z,48.15
2023-03-16T21:34:58.162Z,46.10
2023-03-16T21:37:28.526Z,45.85
2023-03-16T21:40:06.288Z,43.22
2023-03-16T21:42:37.427Z,47.35
2023-03-16T21:45:08.200Z,69.68
2023-03-16T21:47:35.929Z,91.88
2023-03-16T21:50:06.544Z,80.50
2023-03-16T21:52:37.321Z,89.72
2023-03-16T21:55:04.886Z,67.28
2023-03-16T21:57:32.989Z,64.00
2023-03-16T22:00:03.032Z,63.67
2023-03-16T22:02:33.775Z,62.70
2023-03-16T22:05:12.409Z,63.35
2023-03-16T22:07:40.189Z,63.58
2023-03-16T22:10:08.497Z,57.75
2023-03-16T22:12:39.564Z,63.25
2023-03-16T22:15:07.348Z,59.83
2023-03-16T22:17:38.823Z,56.50
2023-03-16T22:20:08.573Z,49.00
2023-03-16T22:22:42.727Z,48.80
2023-03-16T22:25:12.721Z,46.97
2023-03-16T22:27:42.688Z,47.35
2023-03-16T22:30:10.951Z,50.67
2023-03-16T22:32:41.751Z,48.70
2023-03-16T22:35:11.210Z,45.42
2023-03-16T22:37:39.822Z,47.70
2023-03-16T22:40:15.327Z,48.30
2023-03-16T22:42:43.790Z,48.65
2023-03-16T22:45:13.220Z,55.92
2023-03-16T22:47:57.442Z,58.97
2023-03-16T22:50:29.624Z,55.72
2023-03-16T22:52:57.365Z,56.55
2023-03-16T22:55:29.278Z,53.10
2023-03-16T22:57:57.551Z,68.82
2023-03-16T23:00:26.116Z,75.32
2023-03-16T23:02:54.584Z,67.88
2023-03-16T23:05:26.482Z,70.07
2023-03-16T23:07:57.746Z,60.40
2023-03-16T23:10:51.493Z,53.13
2023-03-16T23:13:19.653Z,61.17
2023-03-16T23:15:48.677Z,56.30
2023-03-16T23:18:24.438Z,50.20
2023-03-16T23:20:52.366Z,59.63
2023-03-16T23:23:23.297Z,53.65
2023-03-16T23:25:54.443Z,53.38
2023-03-16T23:28:22.044Z,44.38
2023-03-16T23:30:52.591Z,44.83
2023-03-16T23:33:25.157Z,49.95
2023-03-16T23:35:56.091Z,49.15
2023-03-16T23:38:24.339Z,44.58
2023-03-16T23:40:54.084Z,52.13
2023-03-16T23:43:21.748Z,51.50
2023-03-16T23:45:49.379Z,50.25
2023-03-16T23:48:19.814Z,47.97
2023-03-16T23:50:47.600Z,63.63
2023-03-16T23:53:15.252Z,46.95
2023-03-16T23:55:45.232Z,59.53
2023-03-16T23:58:12.931Z,53.63
